createdAt,value
2023-04-07T00:00:27.040Z,6.17
2023-04-07T00:02:56.324Z,6.73
2023-04-07T00:09:06.107Z,7.03
2023-04-07T00:11:33.408Z,7.07
2023-04-07T00:14:01.258Z,7.03
2023-04-07T00:16:31.460Z,7.23
2023-04-07T00:18:59.475Z,6.90
2023-04-07T00:21:28.451Z,7.37
2023-04-07T00:23:55.768Z,7.10
2023-04-07T00:26:26.272Z,7.23
2023-04-07T00:29:03.133Z,6.57
2023-04-07T00:31:33.972Z,7.43
2023-04-07T00:34:11.181Z,6.63
2023-04-07T00:36:40.225Z,7.10
2023-04-07T00:39:15.238Z,6.67
2023-04-07T00:41:51.195Z,5.30
2023-04-07T00:44:19.356Z,5.60
2023-04-07T00:46:50.337Z,7.07
2023-04-07T00:49:19.285Z,7.77
2023-04-07T00:51:47.608Z,6.93
2023-04-07T00:54:21.845Z,7.77
2023-04-07T00:56:54.001Z,7.67
2023-04-07T00:59:22.822Z,8.80
2023-04-07T01:02:14.052Z,7.57
2023-04-07T01:05:10.343Z,9.10
2023-04-07T01:08:01.578Z,6.57
2023-04-07T01:10:37.998Z,8.67
2023-04-07T01:14:00.892Z,8.23
2023-04-07T01:16:53.807Z,6.57
2023-04-07T01:20:05.875Z,7.13
2023-04-07T01:22:43.131Z,6.70
2023-04-07T01:25:59.710Z,6.17
2023-04-07T01:28:57.181Z,6.40
2023-04-07T01:31:30.685Z,6.80
2023-04-07T01:34:12.113Z,6.70
2023-04-07T01:36:44.366Z,6.57
2023-04-07T01:39:13.901Z,6.57
2023-04-07T01:41:44.285Z,5.73
2023-04-07T01:44:18.928Z,7.00
2023-04-07T01:46:47.590Z,6.70
2023-04-07T01:49:17.059Z,6.33
2023-04-07T01:51:53.029Z,5.37
2023-04-07T01:54:41.755Z,6.43
2023-04-07T01:57:12.614Z,6.30
2023-04-07T01:59:42.869Z,6.40
2023-04-07T02:02:20.627Z,6.07
2023-04-07T02:04:59.222Z,5.97
2023-04-07T02:07:42.206Z,7.10
2023-04-07T02:10:14.065Z,6.37
2023-04-07T02:12:45.053Z,6.03
2023-04-07T02:15:14.336Z,7.10
2023-04-07T02:17:54.022Z,6.70
2023-04-07T02:20:24.537Z,6.67
2023-04-07T02:22:55.815Z,5.77
2023-04-07T02:25:45.316Z,7.63
2023-04-07T02:28:13.742Z,7.00
2023-04-07T02:30:42.662Z,6.43
2023-04-07T02:33:11.009Z,6.83
2023-04-07T02:35:42.057Z,6.40
2023-04-07T02:38:11.731Z,7.33
2023-04-07T02:40:49.994Z,6.10
2023-04-07T02:43:27.606Z,6.30
2023-04-07T02:45:57.167Z,6.97
2023-04-07T02:48:33.714Z,6.20
2023-04-07T02:51:03.977Z,6.67
2023-04-07T02:53:33.123Z,6.70
2023-04-07T02:56:01.446Z,6.77
2023-04-07T02:58:37.132Z,6.87
2023-04-07T03:01:04.325Z,6.30
2023-04-07T03:03:32.983Z,6.57
2023-04-07T03:06:01.144Z,6.57
2023-04-07T03:08:30.397Z,6.50
2023-04-07T03:10:59.502Z,7.10
2023-04-07T03:13:29.121Z,6.80
2023-04-07T03:16:02.202Z,6.40
2023-04-07T03:18:33.731Z,6.37
2023-04-07T03:21:04.256Z,6.00
2023-04-07T03:23:40.376Z,7.07
2023-04-07T03:26:10.530Z,6.37
2023-04-07T03:28:41.539Z,6.17
2023-04-07T03:31:09.046Z,7.60
2023-04-07T03:33:39.522Z,6.30
2023-04-07T03:36:19.166Z,6.47
2023-04-07T03:38:48.969Z,6.53
2023-04-07T03:41:21.832Z,6.73
2023-04-07T03:43:51.347Z,6.60
2023-04-07T03:46:23.364Z,6.73
2023-04-07T03:48:50.836Z,6.43
2023-04-07T03:51:18.993Z,7.10
2023-04-07T03:53:48.682Z,6.63
2023-04-07T03:56:20.833Z,6.97
2023-04-07T03:58:57.399Z,6.97
2023-04-07T04:01:26.213Z,6.90
2023-04-07T04:03:56.124Z,7.07
2023-04-07T04:06:25.017Z,7.33
2023-04-07T04:09:02.322Z,7.70
2023-04-07T04:11:32.243Z,6.83
2023-04-07T04:14:02.584Z,7.10
2023-04-07T04:16:35.671Z,7.63
2023-04-07T04:19:05.760Z,7.07
2023-04-07T04:21:34.757Z,6.30
2023-04-07T04:24:01.864Z,6.47
2023-04-07T04:26:32.132Z,7.63
2023-04-07T04:29:09.688Z,6.93
2023-04-07T04:31:43.922Z,7.40
2023-04-07T04:34:18.616Z,6.67
2023-04-07T04:36:49.744Z,7.00
2023-04-07T04:39:17.897Z,7.50
2023-04-07T04:41:48.408Z,7.50
2023-04-07T04:44:21.866Z,7.20
2023-04-07T04:46:54.191Z,6.60
2023-04-07T04:49:26.468Z,6.60
2023-04-07T04:51:55.235Z,6.90
2023-04-07T04:54:32.179Z,6.50
2023-04-07T04:57:01.961Z,7.00
2023-04-07T04:59:38.584Z,6.40
2023-04-07T05:02:16.408Z,6.53
2023-04-07T05:04:45.588Z,7.03
2023-04-07T05:07:17.326Z,6.27
2023-04-07T05:09:47.766Z,6.83
2023-04-07T05:12:20.244Z,7.00
2023-04-07T05:14:50.834Z,7.20
2023-04-07T05:17:23.505Z,7.03
2023-04-07T05:19:54.400Z,7.30
2023-04-07T05:22:24.034Z,6.90
2023-04-07T05:24:52.945Z,7.73
2023-04-07T05:27:22.181Z,7.50
2023-04-07T05:29:52.541Z,7.30
2023-04-07T05:32:28.460Z,6.80
2023-04-07T05:34:58.016Z,6.70
2023-04-07T05:37:25.194Z,6.07
2023-04-07T05:39:53.889Z,6.40
2023-04-07T05:42:23.135Z,6.17
2023-04-07T05:44:53.365Z,6.00
2023-04-07T05:47:29.928Z,6.50
2023-04-07T05:49:59.604Z,6.20
2023-04-07T05:52:27.831Z,6.00
2023-04-07T05:54:56.867Z,7.07
2023-04-07T05:57:29.076Z,7.30
2023-04-07T05:59:59.585Z,8.40
2023-04-07T06:02:28.353Z,7.90
2023-04-07T06:04:56.847Z,8.00
2023-04-07T06:07:26.320Z,7.70
2023-04-07T06:09:56.005Z,7.80
2023-04-07T06:12:32.146Z,7.67
2023-04-07T06:15:01.855Z,7.73
2023-04-07T06:17:32.409Z,6.43
2023-04-07T06:20:00.565Z,7.00
2023-04-07T06:22:30.324Z,6.73
2023-04-07T06:25:00.266Z,6.80
2023-04-07T06:27:29.081Z,7.40
2023-04-07T06:29:59.645Z,7.20
2023-04-07T06:32:28.637Z,7.07
2023-04-07T06:34:58.745Z,7.50
2023-04-07T06:37:28.327Z,7.10
2023-04-07T06:39:59.114Z,7.67
2023-04-07T06:42:31.070Z,7.17
2023-04-07T06:45:01.318Z,6.73
2023-04-07T06:47:32.408Z,6.23
2023-04-07T06:50:02.530Z,6.85
2023-04-07T06:52:30.162Z,6.97
2023-04-07T06:55:00.007Z,6.65
2023-04-07T06:57:38.644Z,7.13
2023-04-07T07:00:12.183Z,7.18
2023-04-07T07:02:48.279Z,7.00
2023-04-07T07:05:22.122Z,7.63
2023-04-07T07:07:49.794Z,8.00
2023-04-07T07:10:19.839Z,7.95
2023-04-07T07:12:58.898Z,9.23
2023-04-07T07:15:28.227Z,8.60
2023-04-07T07:17:57.069Z,9.35
2023-04-07T07:20:29.154Z,8.55
2023-04-07T07:23:01.954Z,7.20
2023-04-07T07:25:41.451Z,8.53
2023-04-07T07:28:13.479Z,7.97
2023-04-07T07:30:42.158Z,7.90
2023-04-07T07:33:12.314Z,7.90
2023-04-07T07:35:42.531Z,7.33
2023-04-07T07:38:22.165Z,7.77
2023-04-07T07:40:50.576Z,7.50
2023-04-07T07:43:19.324Z,7.57
2023-04-07T07:45:49.336Z,7.70
2023-04-07T07:48:17.663Z,7.30
2023-04-07T07:50:47.974Z,7.63
2023-04-07T07:53:15.748Z,7.90
2023-04-07T07:55:44.289Z,7.73
2023-04-07T07:58:13.169Z,7.60
2023-04-07T08:00:43.034Z,7.90
2023-04-07T08:03:11.975Z,9.07
2023-04-07T08:05:43.575Z,8.67
2023-04-07T08:08:11.949Z,9.13
2023-04-07T08:10:45.248Z,6.90
2023-04-07T08:13:13.693Z,6.77
2023-04-07T08:15:42.360Z,7.20
2023-04-07T08:18:09.590Z,6.23
2023-04-07T08:20:39.573Z,8.02
2023-04-07T08:23:07.735Z,6.50
2023-04-07T08:25:37.389Z,6.45
2023-04-07T08:28:15.248Z,5.95
2023-04-07T08:30:43.856Z,5.47
2023-04-07T08:33:24.067Z,6.15
2023-04-07T08:36:01.596Z,5.68
2023-04-07T08:38:32.192Z,5.95
2023-04-07T08:41:13.438Z,6.40
2023-04-07T08:43:51.089Z,5.30
2023-04-07T08:46:22.775Z,5.60
2023-04-07T08:48:53.102Z,6.22
2023-04-07T08:51:29.886Z,6.45
2023-04-07T08:54:12.086Z,6.25
2023-04-07T08:56:47.041Z,5.82
2023-04-07T08:59:18.139Z,5.80
2023-04-07T09:01:48.050Z,4.90
2023-04-07T09:04:19.086Z,5.35
2023-04-07T09:06:47.489Z,5.35
2023-04-07T09:09:15.867Z,5.95
2023-04-07T09:11:46.189Z,5.97
2023-04-07T09:14:15.635Z,4.68
2023-04-07T09:16:42.857Z,5.28
2023-04-07T09:19:13.278Z,5.43
2023-04-07T09:21:54.128Z,4.88
2023-04-07T09:24:37.838Z,4.45
2023-04-07T09:27:23.991Z,5.05
2023-04-07T09:29:51.241Z,5.32
2023-04-07T09:32:47.018Z,4.82
2023-04-07T09:35:14.350Z,5.35
2023-04-07T09:37:52.461Z,5.45
2023-04-07T09:40:29.388Z,5.75
2023-04-07T09:42:59.243Z,5.55
2023-04-07T09:45:36.130Z,5.22
2023-04-07T09:48:20.596Z,4.80
2023-04-07T09:50:50.691Z,5.18
2023-04-07T09:53:21.634Z,5.55
2023-04-07T09:55:57.484Z,5.18
2023-04-07T09:58:39.645Z,4.72
2023-04-07T10:01:13.396Z,5.00
2023-04-07T10:03:48.377Z,4.53
2023-04-07T10:06:19.371Z,4.43
2023-04-07T10:08:48.439Z,4.75
2023-04-07T10:11:18.625Z,4.90
2023-04-07T10:13:47.922Z,4.67
2023-04-07T10:16:17.613Z,4.40
2023-04-07T10:18:44.966Z,4.70
2023-04-07T10:21:19.413Z,5.37
2023-04-07T10:24:31.819Z,5.10
2023-04-07T10:27:05.185Z,4.93
2023-04-07T10:29:41.519Z,4.77
2023-04-07T10:32:10.140Z,4.63
2023-04-07T10:34:59.820Z,4.37
2023-04-07T10:37:36.378Z,4.17
2023-04-07T10:40:29.091Z,5.57
2023-04-07T10:42:59.641Z,4.97
2023-04-07T10:45:52.912Z,5.20
2023-04-07T10:48:30.599Z,5.10
2023-04-07T10:51:18.305Z,4.93
2023-04-07T10:54:21.443Z,5.20
2023-04-07T10:57:29.269Z,5.57
2023-04-07T11:00:12.667Z,4.63
2023-04-07T11:02:41.952Z,4.90
2023-04-07T11:05:31.981Z,5.15
2023-04-07T11:08:04.766Z,4.10
2023-04-07T11:10:35.119Z,5.03
2023-04-07T11:13:07.192Z,4.68
2023-04-07T11:15:39.384Z,5.13
2023-04-07T11:18:18.761Z,4.82
2023-04-07T11:21:01.034Z,5.32
2023-04-07T11:23:32.304Z,4.70
2023-04-07T11:26:13.243Z,5.37
2023-04-07T11:28:52.997Z,4.87
2023-04-07T11:31:29.648Z,4.50
2023-04-07T11:34:10.605Z,4.57
2023-04-07T11:36:50.060Z,4.63
2023-04-07T11:39:22.441Z,4.97
2023-04-07T11:41:59.060Z,4.82
2023-04-07T11:44:38.963Z,4.55
2023-04-07T11:47:07.272Z,5.32
2023-04-07T11:49:35.760Z,4.50
2023-04-07T11:52:08.680Z,4.22
2023-04-07T11:54:44.105Z,4.60
2023-04-07T11:57:14.399Z,5.28
2023-04-07T11:59:42.199Z,4.90
2023-04-07T12:02:11.352Z,4.85
2023-04-07T12:04:40.981Z,4.97
2023-04-07T12:07:12.963Z,4.07
2023-04-07T12:09:41.153Z,4.72
2023-04-07T12:12:11.811Z,4.32
2023-04-07T12:14:40.581Z,4.13
2023-04-07T12:17:29.538Z,4.40
2023-04-07T12:19:58.284Z,3.75
2023-04-07T12:22:27.404Z,4.80
2023-04-07T12:24:57.785Z,4.40
2023-04-07T12:27:41.707Z,4.60
2023-04-07T12:30:13.317Z,4.20
2023-04-07T12:32:44.006Z,4.80
2023-04-07T12:35:21.877Z,5.32
2023-04-07T12:37:55.607Z,4.80
2023-04-07T12:40:26.566Z,4.93
2023-04-07T12:43:01.159Z,4.47
2023-04-07T12:45:35.914Z,4.82
2023-04-07T12:48:06.946Z,4.33
2023-04-07T12:50:36.375Z,4.50
2023-04-07T12:53:13.713Z,4.23
2023-04-07T12:55:50.460Z,3.60
2023-04-07T12:58:19.884Z,4.95
2023-04-07T13:00:49.029Z,4.40
2023-04-07T13:03:17.895Z,4.57
2023-04-07T13:05:49.464Z,4.90
2023-04-07T13:08:18.221Z,4.90
2023-04-07T13:10:48.805Z,4.60
2023-04-07T13:13:19.501Z,4.70
2023-04-07T13:15:55.287Z,4.70
2023-04-07T13:18:23.880Z,5.17
2023-04-07T13:21:14.324Z,5.83
2023-04-07T13:23:53.911Z,6.30
2023-04-07T13:26:30.450Z,7.07
2023-04-07T13:29:01.787Z,6.30
2023-04-07T13:31:30.846Z,5.97
2023-04-07T13:34:01.406Z,6.53
2023-04-07T13:36:32.486Z,6.53
2023-04-07T13:39:00.063Z,6.63
2023-04-07T13:41:30.101Z,6.00
2023-04-07T13:43:58.696Z,6.40
2023-04-07T13:46:31.052Z,6.30
2023-04-07T13:49:01.675Z,5.97
2023-04-07T13:51:31.210Z,6.30
2023-04-07T13:54:00.399Z,6.67
2023-04-07T13:56:27.466Z,6.27
2023-04-07T13:58:55.750Z,6.13
2023-04-07T14:01:23.560Z,6.70
2023-04-07T14:03:53.216Z,6.43
2023-04-07T14:06:32.292Z,6.60
2023-04-07T14:09:01.523Z,6.53
2023-04-07T14:11:30.671Z,6.43
2023-04-07T14:13:58.607Z,6.03
2023-04-07T14:16:26.841Z,7.37
2023-04-07T14:18:58.568Z,6.73
2023-04-07T14:21:31.612Z,6.73
2023-04-07T14:24:00.602Z,6.70
2023-04-07T14:26:31.122Z,6.30
2023-04-07T14:28:59.634Z,6.13
2023-04-07T14:31:29.127Z,6.30
2023-04-07T14:34:06.824Z,6.80
2023-04-07T14:36:35.366Z,6.27
2023-04-07T14:39:05.526Z,7.30
2023-04-07T14:41:42.267Z,6.87
2023-04-07T14:44:10.720Z,6.53
2023-04-07T14:46:40.155Z,6.53
2023-04-07T14:49:09.284Z,7.07
2023-04-07T14:51:40.409Z,7.07
2023-04-07T14:54:08.308Z,6.23
2023-04-07T14:56:44.969Z,6.37
2023-04-07T14:59:23.399Z,6.73
2023-04-07T15:01:59.862Z,6.70
2023-04-07T15:04:28.666Z,6.77
2023-04-07T15:06:59.449Z,6.50
2023-04-07T15:09:28.644Z,6.70
2023-04-07T15:11:57.253Z,7.47
2023-04-07T15:14:25.934Z,6.97
2023-04-07T15:16:54.962Z,7.27
2023-04-07T15:19:25.196Z,7.23
2023-04-07T15:21:56.631Z,6.53
2023-04-07T15:24:27.922Z,6.57
2023-04-07T15:26:56.510Z,7.73
2023-04-07T15:29:26.615Z,7.43
2023-04-07T15:31:56.436Z,6.63
2023-04-07T15:34:26.977Z,6.80
2023-04-07T15:37:04.151Z,7.50
2023-04-07T15:39:32.107Z,8.17
2023-04-07T15:42:04.271Z,7.80
2023-04-07T15:44:40.907Z,8.33
2023-04-07T15:47:09.090Z,8.30
2023-04-07T15:49:39.294Z,7.87
2023-04-07T15:52:10.177Z,9.13
2023-04-07T15:54:37.233Z,9.17
2023-04-07T15:57:13.409Z,8.90
2023-04-07T15:59:41.841Z,9.27
2023-04-07T16:02:12.969Z,9.17
2023-04-07T16:04:43.639Z,9.30
2023-04-07T16:07:10.930Z,9.77
2023-04-07T16:09:39.271Z,10.27
2023-04-07T16:12:08.096Z,9.57
2023-04-07T16:14:44.261Z,9.70
2023-04-07T16:17:13.542Z,9.60
2023-04-07T16:19:42.871Z,9.63
2023-04-07T16:22:11.150Z,9.77
2023-04-07T16:24:42.094Z,10.77
2023-04-07T16:27:10.566Z,10.23
2023-04-07T16:29:41.339Z,10.67
2023-04-07T16:32:12.452Z,10.17
2023-04-07T16:34:42.021Z,9.70
2023-04-07T16:37:11.994Z,9.93
2023-04-07T16:39:40.467Z,10.23
2023-04-07T16:42:14.732Z,9.73
2023-04-07T16:44:50.819Z,10.63
2023-04-07T16:47:21.956Z,10.33
2023-04-07T16:49:49.252Z,9.80
2023-04-07T16:52:26.899Z,10.63
2023-04-07T16:54:56.851Z,11.63
2023-04-07T16:57:23.897Z,9.90
2023-04-07T17:00:00.657Z,10.00
2023-04-07T17:02:30.009Z,10.10
2023-04-07T17:05:00.178Z,9.57
2023-04-07T17:07:27.439Z,10.77
2023-04-07T17:09:54.887Z,9.57
2023-04-07T17:12:26.197Z,10.87
2023-04-07T17:14:56.394Z,10.23
2023-04-07T17:17:24.920Z,11.30
2023-04-07T17:19:54.226Z,11.57
2023-04-07T17:22:24.156Z,10.20
2023-04-07T17:25:00.592Z,10.20
2023-04-07T17:27:30.364Z,10.73
2023-04-07T17:29:59.120Z,10.70
2023-04-07T17:32:28.346Z,10.30
2023-04-07T17:34:56.709Z,10.00
2023-04-07T17:37:25.085Z,10.47
2023-04-07T17:39:52.063Z,10.53
2023-04-07T17:42:20.585Z,9.70
2023-04-07T17:44:53.089Z,10.87
2023-04-07T17:47:21.515Z,10.60
2023-04-07T17:49:52.160Z,10.93
2023-04-07T17:52:20.604Z,10.93
2023-04-07T17:54:50.752Z,10.80
2023-04-07T17:57:21.080Z,11.50
2023-04-07T17:59:52.894Z,10.17
2023-04-07T18:02:21.809Z,11.07
2023-04-07T18:04:53.756Z,11.10
2023-04-07T18:07:30.278Z,10.50
2023-04-07T18:09:59.305Z,10.87
2023-04-07T18:12:26.316Z,11.47
2023-04-07T18:14:54.649Z,11.13
2023-04-07T18:17:24.586Z,10.67
2023-04-07T18:19:52.832Z,10.00
2023-04-07T18:22:22.707Z,9.93
2023-04-07T18:24:56.303Z,10.90
2023-04-07T18:27:27.739Z,10.87
2023-04-07T18:29:56.924Z,11.43
2023-04-07T18:32:25.998Z,10.57
2023-04-07T18:35:06.943Z,10.87
2023-04-07T18:37:35.550Z,10.53
2023-04-07T18:40:06.156Z,10.43
2023-04-07T18:42:36.126Z,11.57
2023-04-07T18:45:07.154Z,10.87
2023-04-07T18:47:36.493Z,10.27
2023-04-07T18:50:05.344Z,10.80
2023-04-07T18:52:35.806Z,11.20
2023-04-07T18:55:09.786Z,10.63
2023-04-07T18:57:49.394Z,10.87
2023-04-07T19:00:16.671Z,10.90
2023-04-07T19:02:44.984Z,10.90
2023-04-07T19:05:16.349Z,10.93
2023-04-07T19:07:47.596Z,11.10
2023-04-07T19:10:19.066Z,10.20
2023-04-07T19:12:49.698Z,10.87
2023-04-07T19:15:19.510Z,10.57
2023-04-07T19:17:53.250Z,10.77
2023-04-07T19:20:23.946Z,10.33
2023-04-07T19:22:54.391Z,10.70
2023-04-07T19:25:25.660Z,10.57
2023-04-07T19:27:54.172Z,11.60
2023-04-07T19:30:21.330Z,11.07
2023-04-07T19:32:50.428Z,10.70
2023-04-07T19:35:21.388Z,10.87
2023-04-07T19:37:52.423Z,10.63
2023-04-07T19:40:20.922Z,11.47
2023-04-07T19:42:48.151Z,12.23
2023-04-07T19:45:17.046Z,11.17
2023-04-07T19:47:45.964Z,11.43
2023-04-07T19:50:16.330Z,11.63
2023-04-07T19:52:46.702Z,12.27
2023-04-07T19:55:17.685Z,11.57
2023-04-07T19:57:47.350Z,11.40
2023-04-07T20:00:17.077Z,12.93
2023-04-07T20:02:46.881Z,12.83
2023-04-07T20:05:16.623Z,12.83
2023-04-07T20:07:46.436Z,11.17
2023-04-07T20:10:15.168Z,11.93
2023-04-07T20:12:44.349Z,11.60
2023-04-07T20:15:14.881Z,11.30
2023-04-07T20:17:41.994Z,12.37
2023-04-07T20:20:12.082Z,11.97
2023-04-07T20:22:40.635Z,12.03
2023-04-07T20:25:11.848Z,11.60
2023-04-07T20:27:40.394Z,12.00
2023-04-07T20:30:17.812Z,12.87
2023-04-07T20:32:47.672Z,12.73
2023-04-07T20:35:18.774Z,11.90
2023-04-07T20:37:55.211Z,11.57
2023-04-07T20:40:23.430Z,12.03
2023-04-07T20:42:53.136Z,12.93
2023-04-07T20:45:24.646Z,12.27
2023-04-07T20:47:55.730Z,11.40
2023-04-07T20:50:24.754Z,11.30
2023-04-07T20:52:58.527Z,12.30
2023-04-07T20:55:29.376Z,10.97
2023-04-07T20:57:58.490Z,10.70
2023-04-07T21:00:28.483Z,10.47
2023-04-07T21:02:57.608Z,9.57
2023-04-07T21:05:34.388Z,10.33
2023-04-07T21:08:03.684Z,11.30
2023-04-07T21:10:32.211Z,12.63
2023-04-07T21:13:00.649Z,12.13
2023-04-07T21:15:30.869Z,11.23
2023-04-07T21:18:01.646Z,10.90
2023-04-07T21:20:32.475Z,10.83
2023-04-07T21:23:02.249Z,10.93
2023-04-07T21:25:32.446Z,11.27
2023-04-07T21:28:01.316Z,9.73
2023-04-07T21:30:29.475Z,11.17
2023-04-07T21:32:58.139Z,11.70
2023-04-07T21:35:31.721Z,11.33
2023-04-07T21:37:59.347Z,9.07
2023-04-07T21:40:27.889Z,10.63
2023-04-07T21:42:57.198Z,9.30
2023-04-07T21:45:28.502Z,10.03
2023-04-07T21:48:04.771Z,11.33
2023-04-07T21:50:36.212Z,11.43
2023-04-07T21:53:04.828Z,12.60
2023-04-07T21:55:36.007Z,11.57
2023-04-07T21:58:06.884Z,9.33
2023-04-07T22:00:36.964Z,11.03
2023-04-07T22:03:14.549Z,12.40
2023-04-07T22:05:44.772Z,10.60
2023-04-07T22:08:13.136Z,9.47
2023-04-07T22:10:42.112Z,11.43
2023-04-07T22:13:11.654Z,9.47
2023-04-07T22:15:41.250Z,10.77
2023-04-07T22:18:10.298Z,11.30
2023-04-07T22:20:42.029Z,12.50
2023-04-07T22:23:09.450Z,10.37
2023-04-07T22:25:37.669Z,9.70
2023-04-07T22:28:09.286Z,10.03
2023-04-07T22:30:47.917Z,10.33
2023-04-07T22:33:17.787Z,12.63
2023-04-07T22:35:47.148Z,11.80
2023-04-07T22:38:17.960Z,10.97
2023-04-07T22:40:49.561Z,12.10
2023-04-07T22:43:21.051Z,12.50
2023-04-07T22:45:51.522Z,12.00
2023-04-07T22:48:20.893Z,13.00
2023-04-07T22:50:51.246Z,13.00
2023-04-07T22:53:21.045Z,11.47
2023-04-07T22:55:49.712Z,12.47
2023-04-07T22:58:16.998Z,10.40
2023-04-07T23:00:47.806Z,10.30
2023-04-07T23:03:16.078Z,12.70
2023-04-07T23:05:46.957Z,12.77
2023-04-07T23:08:17.121Z,12.30
2023-04-07T23:10:46.182Z,12.67
2023-04-07T23:13:24.647Z,13.13
2023-04-07T23:15:54.022Z,13.00
2023-04-07T23:18:22.044Z,10.10
2023-04-07T23:20:53.820Z,12.37
2023-04-07T23:23:22.639Z,13.53
2023-04-07T23:25:51.336Z,12.63
2023-04-07T23:28:19.850Z,12.50
2023-04-07T23:30:49.084Z,12.67
2023-04-07T23:33:18.073Z,12.57
2023-04-07T23:35:47.886Z,13.00
2023-04-07T23:38:17.438Z,12.97
2023-04-07T23:40:46.959Z,13.97
2023-04-07T23:43:18.557Z,12.73
2023-04-07T23:45:47.079Z,13.60
2023-04-07T23:48:17.397Z,13.57
2023-04-07T23:50:50.234Z,13.43
2023-04-07T23:53:19.731Z,13.23
2023-04-07T23:55:46.954Z,13.23
2023-04-07T23:58:15.642Z,12.63
